.
WxDataArchive / Data Records for 2013-09-01
2013-08-31 September 2013 2013-09-02

Data Records for Sunday, 01 September 2013

Time	Temp	Chill	HIndex	Humid	Dewpt	 Wind 	HiWind	WindDir	Rain 	Barom 
-----	----	-----	------	-----	-----	------	------	-------	-----	----- 
00:00	72.5	72.5	72.5	85	67.7	0	0	---	0.00	29.778 
00:05	72.5	72.5	72.5	85	67.7	0	0	---	0.00	29.778 
00:10	72.5	72.5	72.5	86	68.1	0	0	---	0.00	29.778 
00:15	72.3	72.3	72.3	86	67.9	0	0	---	0.00	29.781 
00:20	72.1	72.1	72.1	86	67.7	0	0	---	0.00	29.781 
00:25	72.1	72.1	72.1	86	67.7	0	0	---	0.00	29.781 
00:30	72.0	72.0	72.0	87	67.9	0	0	---	0.00	29.775 
00:35	72.0	72.0	72.0	87	67.9	0	0	---	0.00	29.775 
00:40	71.8	71.8	71.8	88	68.0	0	0	---	0.00	29.775 
00:45	71.8	71.8	71.8	88	68.0	0	0	---	0.00	29.769 
00:50	71.6	71.6	71.6	88	67.8	0	0	---	0.00	29.769 
00:55	71.6	71.6	71.6	88	67.8	0	0	---	0.00	29.769 
01:00	71.5	71.5	71.5	89	68.1	0	0	---	0.00	29.771 
01:05	71.5	71.5	71.5	89	68.1	0	0	---	0.00	29.771 
01:10	71.3	71.3	71.3	89	67.9	0	0	---	0.00	29.771 
01:15	71.3	71.3	71.3	89	67.9	0	0	---	0.00	29.772 
01:20	71.3	71.3	71.3	90	68.2	0	0	---	0.00	29.772 
01:25	71.1	71.1	71.1	90	68.0	0	0	---	0.00	29.772 
01:30	71.1	71.1	71.1	89	67.7	0	0	---	0.00	29.768 
01:35	70.9	70.9	70.9	90	67.8	0	0	---	0.00	29.768 
01:40	70.8	70.8	70.8	90	67.7	0	0	---	0.00	29.768 
01:45	70.4	70.4	70.4	90	67.3	0	0	---	0.00	29.764 
01:50	70.4	70.4	70.4	90	67.3	0	0	---	0.00	29.764 
01:55	70.3	70.3	70.3	90	67.2	0	0	---	0.00	29.764 
02:00	70.3	70.3	70.3	91	67.5	0	0	---	0.00	29.760 
02:05	70.1	70.1	70.1	91	67.3	0	0	---	0.00	29.760 
02:10	70.1	70.1	70.1	91	67.3	0	0	---	0.00	29.760 
02:15	69.9	69.9	69.9	91	67.1	0	0	---	0.00	29.756 
02:20	69.8	69.8	69.8	91	67.0	0	0	---	0.00	29.756 
02:25	69.8	69.8	69.8	91	67.0	0	0	---	0.00	29.756 
02:30	69.6	69.6	69.6	91	66.8	0	0	---	0.00	29.753 
02:35	69.6	69.6	69.6	91	66.8	0	0	---	0.00	29.753 
02:40	69.4	69.4	69.4	92	67.0	0	0	---	0.00	29.753 
02:45	69.4	69.4	69.4	92	67.0	0	0	---	0.00	29.755 
02:50	69.4	69.4	69.4	92	67.0	0	0	---	0.00	29.755 
02:55	69.6	69.6	69.6	92	67.2	0	0	---	0.00	29.755 
03:00	69.6	69.6	69.6	92	67.2	0	0	---	0.00	29.755 
03:05	69.6	69.6	69.6	92	67.2	0	0	---	0.00	29.755 
03:10	69.6	69.6	69.6	92	67.2	0	0	---	0.00	29.755 
03:15	69.6	69.6	69.6	92	67.2	0	0	---	0.00	29.757 
03:20	69.6	69.6	69.6	91	66.8	0	1	315	0.00	29.757 
03:25	69.6	69.6	69.6	91	66.8	0	1	315	0.00	29.757 
03:30	69.6	69.6	69.6	91	66.8	0	0	---	0.00	29.759 
03:35	69.6	69.6	69.6	91	66.8	0	0	---	0.00	29.759 
03:40	69.6	69.6	69.6	91	66.8	0	0	---	0.00	29.759 
03:45	69.6	69.6	69.6	91	66.8	0	0	---	0.00	29.755 
03:50	69.6	69.6	69.6	91	66.8	0	0	---	0.00	29.755 
03:55	69.6	69.6	69.6	90	66.5	0	0	---	0.00	29.755 
04:00	69.8	69.8	69.8	90	66.7	0	1	315	0.00	29.756 
04:05	69.6	69.6	69.6	90	66.5	0	1	315	0.00	29.756 
04:10	69.6	69.6	69.6	90	66.5	0	0	---	0.00	29.756 
04:15	69.6	69.6	69.6	90	66.5	0	1	315	0.00	29.755 
04:20	69.6	69.6	69.6	90	66.5	0	1	315	0.00	29.755 
04:25	69.6	69.6	69.6	90	66.5	0	1	315	0.00	29.755 
04:30	69.6	69.6	69.6	90	66.5	0	1	315	0.00	29.756 
04:35	69.6	69.6	69.6	90	66.5	0	0	---	0.00	29.756 
04:40	69.6	69.6	69.6	90	66.5	0	0	---	0.00	29.756 
04:45	69.6	69.6	69.6	90	66.5	0	0	---	0.00	29.748 
04:50	69.4	69.4	69.4	89	66.0	0	0	---	0.00	29.748 
04:55	69.3	69.3	69.3	90	66.2	0	0	---	0.00	29.748 
05:00	69.3	69.3	69.3	90	66.2	0	0	---	0.00	29.756 
05:05	69.1	69.1	69.1	90	66.0	0	0	---	0.00	29.756 
05:10	69.1	69.1	69.1	90	66.0	0	0	---	0.00	29.756 
05:15	69.1	69.1	69.1	90	66.0	0	0	---	0.00	29.758 
05:20	69.1	69.1	69.1	90	66.0	0	0	---	0.00	29.758 
05:25	69.1	69.1	69.1	90	66.0	0	0	---	0.00	29.758 
05:30	69.1	69.1	69.1	90	66.0	0	0	---	0.00	29.757 
05:35	69.1	69.1	69.1	90	66.0	0	0	---	0.00	29.757 
05:40	69.1	69.1	69.1	90	66.0	0	0	---	0.00	29.757 
05:45	69.1	69.1	69.1	90	66.0	0	0	---	0.00	29.757 
05:50	69.1	69.1	69.1	90	66.0	0	0	---	0.00	29.757 
05:55	68.9	68.9	68.9	90	65.8	0	0	---	0.00	29.757 
06:00	68.8	68.8	68.8	90	65.7	0	0	---	0.00	29.749 
06:05	68.6	68.6	68.6	90	65.5	0	0	---	0.00	29.749 
06:10	68.6	68.6	68.6	90	65.5	0	0	---	0.00	29.749 
06:15	68.4	68.4	68.4	91	65.7	0	0	---	0.00	29.746 
06:20	68.3	68.3	68.3	91	65.6	0	0	---	0.00	29.746 
06:25	68.1	68.1	68.1	91	65.4	0	0	---	0.00	29.746 
06:30	67.9	67.9	67.9	91	65.2	0	0	---	0.00	29.749 
06:35	67.8	67.8	67.8	91	65.1	0	0	---	0.00	29.749 
06:40	67.8	67.8	67.8	91	65.1	0	0	---	0.00	29.749 
06:45	67.6	67.6	67.6	91	64.9	0	0	---	0.00	29.749 
06:50	67.4	67.4	67.4	91	64.7	0	0	---	0.00	29.749 
06:55	67.3	67.3	67.3	92	64.9	0	0	---	0.00	29.749 
07:00	67.3	67.3	67.3	92	64.9	0	0	---	0.00	29.758 
07:05	67.1	67.1	67.1	92	64.7	0	0	---	0.00	29.758 
07:10	66.9	66.9	66.9	92	64.5	0	0	---	0.00	29.758 
07:15	66.8	66.8	66.8	92	64.4	0	0	---	0.00	29.759 
07:20	66.8	66.8	66.8	92	64.4	0	0	---	0.00	29.759 
07:25	66.6	66.6	66.6	92	64.2	0	0	---	0.00	29.759 
07:30	66.6	66.6	66.6	93	64.5	0	0	---	0.00	29.769 
07:35	66.6	66.6	66.6	93	64.5	0	0	---	0.00	29.769 
07:40	66.6	66.6	66.6	93	64.5	0	0	---	0.00	29.769 
07:45	66.6	66.6	66.6	93	64.5	0	0	---	0.00	29.767 
07:50	66.8	66.8	66.8	94	65.0	0	0	---	0.00	29.767 
07:55	67.1	67.1	67.1	94	65.3	0	0	---	0.00	29.767 
08:00	67.4	67.4	67.4	94	65.6	0	1	315	0.00	29.765 
08:05	67.8	67.8	67.8	94	66.0	0	0	---	0.00	29.765 
08:10	68.1	68.1	68.1	94	66.3	0	0	---	0.00	29.765 
08:15	68.4	68.4	68.4	94	66.6	0	1	315	0.00	29.775 
08:20	68.6	68.6	68.6	93	66.5	0	1	315	0.00	29.775 
08:25	68.8	68.8	68.8	93	66.7	0	0	---	0.00	29.775 
08:30	68.9	68.9	68.9	92	66.5	0	1	315	0.00	29.760 
08:35	68.9	68.9	68.9	92	66.5	0	0	---	0.00	29.760 
08:40	69.3	69.3	69.3	92	66.9	0	1	315	0.00	29.760 
08:45	69.4	69.4	69.4	92	67.0	0	1	315	0.00	29.759 
08:50	69.6	69.6	69.6	91	66.8	0	2	338	0.00	29.759 
08:55	69.8	69.8	69.8	91	67.0	0	0	---	0.00	29.759 
09:00	70.1	70.1	70.1	91	67.3	0	1	338	0.00	29.763 
09:05	70.3	70.3	70.3	90	67.2	0	1	338	0.00	29.763 
09:10	70.4	70.4	70.4	90	67.3	0	1	338	0.00	29.763 
09:15	70.6	70.6	70.6	90	67.5	0	1	338	0.00	29.760 
09:20	70.9	70.9	70.9	90	67.8	0	1	338	0.00	29.760 
09:25	71.3	71.3	71.3	90	68.2	0	1	338	0.00	29.760 
09:30	71.6	71.6	71.6	89	68.2	0	1	338	0.00	29.759 
09:35	72.0	72.0	72.0	88	68.2	0	2	338	0.00	29.759 
09:40	72.3	72.3	72.3	88	68.5	0	2	338	0.00	29.759 
09:45	72.7	72.7	72.7	87	68.6	0	2	338	0.00	29.756 
09:50	73.0	73.0	73.0	86	68.6	0	2	338	0.00	29.756 
09:55	73.5	73.5	73.5	85	68.7	0	2	338	0.00	29.756 
10:00	73.9	73.9	73.9	84	68.7	0	1	338	0.00	29.755 
10:05	74.0	74.0	74.0	83	68.5	0	1	315	0.00	29.755 
10:10	74.2	74.2	74.2	83	68.7	0	1	315	0.00	29.755 
10:15	74.4	74.4	74.4	82	68.5	0	2	315	0.00	29.745 
10:20	74.7	74.7	74.7	82	68.8	1	2	315	0.00	29.745 
10:25	74.9	74.9	74.9	81	68.7	0	1	315	0.00	29.745 
10:30	74.9	74.9	74.9	80	68.3	0	1	315	0.00	29.753 
10:35	74.9	74.9	74.9	81	68.7	0	2	315	0.00	29.753 
10:40	74.6	74.6	74.6	81	68.4	0	3	270	0.00	29.753 
10:45	74.4	74.4	74.4	82	68.5	0	4	315	0.00	29.759 
10:50	74.2	74.2	74.2	82	68.3	0	2	315	0.00	29.759 
10:55	74.2	74.2	74.2	82	68.3	0	1	292	0.00	29.759 
11:00	74.2	74.2	74.2	83	68.7	0	2	292	0.00	29.763 
11:05	74.2	74.2	74.2	82	68.3	0	1	292	0.00	29.763 
11:10	74.4	74.4	74.4	82	68.5	0	2	292	0.00	29.763 
11:15	74.2	74.2	74.2	82	68.3	0	1	315	0.00	29.764 
11:20	74.2	74.2	74.2	82	68.3	0	2	315	0.00	29.764 
11:25	74.2	74.2	74.2	82	68.3	0	2	315	0.00	29.764 
11:30	74.0	74.0	74.0	82	68.1	0	1	315	0.00	29.766 
11:35	74.2	74.2	74.2	83	68.7	0	1	315	0.00	29.766 
11:40	74.2	74.2	74.2	82	68.3	0	1	315	0.00	29.766 
11:45	74.0	74.0	74.0	82	68.1	0	2	315	0.00	29.773 
11:50	74.0	74.0	74.0	82	68.1	0	2	315	0.00	29.773 
11:55	74.0	74.0	74.0	82	68.1	0	1	315	0.00	29.773 
12:00	74.0	74.0	74.0	82	68.1	0	2	315	0.00	29.775 
12:05	73.9	73.9	73.9	82	68.0	0	2	315	0.00	29.775 
12:10	73.9	73.9	73.9	83	68.4	0	1	315	0.00	29.775 
12:15	73.9	73.9	73.9	83	68.4	0	3	315	0.00	29.772 
12:20	73.9	73.9	73.9	82	68.0	0	1	315	0.00	29.772 
12:25	74.2	74.2	74.2	82	68.3	0	1	315	0.00	29.772 
12:30	74.7	74.7	74.7	82	68.8	0	1	315	0.00	29.763 
12:35	75.3	75.3	76.0	80	68.7	0	2	315	0.00	29.763 
12:40	75.4	75.4	76.2	79	68.4	0	1	315	0.00	29.763 
12:45	75.6	75.6	76.5	79	68.6	0	2	315	0.00	29.770 
12:50	75.6	75.6	76.5	79	68.6	0	3	315	0.00	29.770 
12:55	75.4	75.4	76.2	79	68.4	0	2	315	0.00	29.770 
13:00	75.4	75.4	76.1	80	68.8	0	2	315	0.00	29.770 
13:05	75.3	75.3	76.0	80	68.7	0	2	315	0.00	29.770 
13:10	75.3	75.3	75.9	81	69.1	0	1	315	0.00	29.770 
13:15	75.3	75.3	75.9	81	69.1	0	1	315	0.00	29.764 
13:20	75.6	75.6	76.3	81	69.3	0	1	315	0.00	29.764 
13:25	75.8	75.8	76.7	80	69.2	1	4	292	0.00	29.764 
13:30	75.6	75.6	76.4	80	69.0	1	3	292	0.00	29.763 
13:35	75.3	75.3	76.0	80	68.7	1	2	292	0.00	29.763 
13:40	75.3	75.3	75.9	81	69.1	1	3	292	0.00	29.763 
13:45	75.1	75.1	75.6	81	68.9	1	4	292	0.00	29.765 
13:50	75.3	75.3	75.8	82	69.4	1	2	292	0.00	29.765 
13:55	75.8	75.8	76.6	81	69.5	1	3	292	0.00	29.765 
14:00	76.1	76.1	77.1	80	69.5	0	2	292	0.00	29.760 
14:05	76.3	76.3	77.5	79	69.3	0	2	292	0.00	29.760 
14:10	76.3	76.3	77.5	79	69.3	0	2	292	0.00	29.760 
14:15	76.5	76.5	77.9	78	69.1	1	3	292	0.00	29.762 
14:20	76.7	76.7	78.2	78	69.3	0	2	292	0.00	29.762 
14:25	76.7	76.7	78.2	77	68.9	1	3	292	0.00	29.762 
14:30	76.5	76.5	77.9	77	68.7	1	3	292	0.00	29.761 
14:35	76.1	76.1	77.3	78	68.7	1	2	292	0.00	29.761 
14:40	75.8	75.8	76.8	79	68.8	0	2	0	0.00	29.761 
14:45	75.6	75.6	76.4	80	69.0	0	3	292	0.00	29.763 
14:50	75.4	75.4	76.1	80	68.8	0	2	292	0.00	29.763 
14:55	75.3	75.3	76.0	80	68.7	0	1	292	0.00	29.763 
15:00	75.3	75.3	75.9	81	69.1	0	1	292	0.00	29.761 
15:05	75.3	75.3	75.9	81	69.1	0	1	292	0.00	29.761 
15:10	75.3	75.3	75.9	81	69.1	0	1	292	0.00	29.761 
15:15	75.3	75.3	75.9	81	69.1	1	3	292	0.00	29.761 
15:20	75.3	75.3	75.9	81	69.1	0	1	292	0.00	29.761 
15:25	75.4	75.4	76.0	81	69.1	0	1	292	0.00	29.761 
15:30	75.4	75.4	76.0	81	69.1	0	1	292	0.00	29.761 
15:35	75.6	75.6	76.3	81	69.3	0	1	292	0.00	29.761 
15:40	75.6	75.6	76.4	80	69.0	0	2	292	0.00	29.761 
15:45	75.8	75.8	76.6	81	69.5	0	1	292	0.00	29.754 
15:50	76.1	76.1	77.1	80	69.5	0	1	292	0.00	29.754 
15:55	76.3	76.3	77.5	79	69.3	0	1	292	0.00	29.754 
16:00	76.5	76.5	77.8	79	69.5	0	1	292	0.00	29.748 
16:05	76.7	76.7	78.2	78	69.3	0	1	292	0.00	29.748 
16:10	76.8	76.8	78.3	78	69.4	0	2	292	0.00	29.748 
16:15	76.7	76.7	78.2	77	68.9	0	2	292	0.00	29.747 
16:20	76.5	76.5	77.9	78	69.1	0	2	292	0.00	29.747 
16:25	76.8	76.8	78.3	78	69.4	0	1	292	0.00	29.747 
16:30	77.2	77.2	79.0	77	69.4	0	1	292	0.00	29.742 
16:35	77.4	77.4	79.3	75	68.8	0	2	292	0.00	29.742 
16:40	78.1	78.1	80.3	73	68.7	0	2	292	0.00	29.742 
16:45	78.5	78.5	80.9	73	69.1	0	2	292	0.00	29.740 
16:50	78.6	78.6	81.0	73	69.2	0	2	292	0.00	29.740 
16:55	78.6	78.6	81.1	74	69.6	0	2	292	0.00	29.740 
17:00	78.8	78.8	81.3	73	69.4	0	3	292	0.00	29.738 
17:05	78.6	78.6	81.0	73	69.2	0	1	292	0.00	29.738 
17:10	78.6	78.6	81.0	73	69.2	0	1	292	0.00	29.738 
17:15	78.6	78.6	81.0	73	69.2	0	1	292	0.00	29.736 
17:20	78.5	78.5	80.9	73	69.1	0	2	292	0.00	29.736 
17:25	78.3	78.3	80.6	73	68.9	1	2	270	0.00	29.736 
17:30	78.6	78.6	81.0	73	69.2	0	1	248	0.00	29.731 
17:35	78.6	78.6	81.0	73	69.2	0	1	248	0.00	29.731 
17:40	78.5	78.5	80.9	73	69.1	0	1	248	0.00	29.731 
17:45	78.3	78.3	80.6	73	68.9	0	1	248	0.00	29.728 
17:50	78.3	78.3	80.6	74	69.3	0	1	248	0.00	29.728 
17:55	78.6	78.6	81.1	74	69.6	0	1	248	0.00	29.728 
18:00	78.6	78.6	81.1	74	69.6	0	2	248	0.00	29.727 
18:05	78.6	78.6	81.0	73	69.2	0	1	248	0.00	29.727 
18:10	78.5	78.5	80.9	73	69.1	0	1	248	0.00	29.727 
18:15	78.3	78.3	80.6	73	68.9	0	1	248	0.00	29.731 
18:20	77.9	77.9	80.0	73	68.5	0	2	248	0.00	29.731 
18:25	77.9	77.9	80.0	74	68.9	0	1	248	0.00	29.731 
18:30	77.7	77.7	79.7	74	68.7	0	1	248	0.00	29.732 
18:35	77.9	77.9	80.0	74	68.9	0	2	248	0.00	29.732 
18:40	77.9	77.9	80.0	74	68.9	0	1	248	0.00	29.732 
18:45	77.9	77.9	80.0	74	68.9	0	2	248	0.00	29.730 
18:50	77.7	77.7	79.7	75	69.1	0	2	248	0.00	29.730 
18:55	77.6	77.6	79.6	76	69.4	0	1	248	0.00	29.730 
19:00	77.6	77.6	79.6	76	69.4	0	1	248	0.00	29.730 
19:05	77.6	77.6	79.6	76	69.4	0	1	248	0.00	29.730 
19:10	77.6	77.6	79.6	75	69.0	0	3	248	0.00	29.730 
19:15	77.4	77.4	79.3	75	68.8	0	3	248	0.00	29.729 
19:20	77.2	77.2	79.0	75	68.6	0	1	248	0.00	29.729 
19:25	77.0	77.0	78.7	75	68.5	0	2	248	0.00	29.729 
19:30	76.8	76.8	78.4	75	68.3	0	0	---	0.00	29.729 
19:35	76.8	76.8	78.4	75	68.3	0	1	248	0.00	29.729 
19:40	76.7	76.7	78.2	76	68.5	0	0	---	0.00	29.729 
19:45	76.7	76.7	78.2	76	68.5	0	0	---	0.00	29.729 
19:50	76.5	76.5	78.0	76	68.4	0	0	---	0.00	29.729 
19:55	76.3	76.3	77.6	77	68.5	0	0	---	0.00	29.729 
20:00	76.1	76.1	77.4	77	68.3	0	0	---	0.00	29.735 
20:05	76.0	76.0	77.2	77	68.3	0	0	---	0.00	29.735 
20:10	75.8	75.8	76.9	78	68.4	0	0	---	0.00	29.735 
20:15	75.6	75.6	76.5	79	68.6	0	0	---	0.00	29.742 
20:20	75.3	75.3	76.1	79	68.3	0	1	248	0.00	29.742 
20:25	75.1	75.1	75.7	80	68.5	0	0	---	0.00	29.742 
20:30	74.9	74.9	74.9	80	68.3	0	0	---	0.00	29.745 
20:35	74.9	74.9	74.9	81	68.7	0	0	---	0.00	29.745 
20:40	74.7	74.7	74.7	81	68.5	0	0	---	0.00	29.745 
20:45	74.6	74.6	74.6	81	68.4	0	0	---	0.00	29.749 
20:50	74.4	74.4	74.4	82	68.5	0	1	248	0.00	29.749 
20:55	74.4	74.4	74.4	82	68.5	0	1	248	0.00	29.749 
21:00	74.2	74.2	74.2	82	68.3	0	0	---	0.00	29.750 
21:05	74.0	74.0	74.0	83	68.5	0	1	248	0.00	29.750 
21:10	74.0	74.0	74.0	83	68.5	0	1	248	0.00	29.750 
21:15	73.9	73.9	73.9	84	68.7	0	1	248	0.00	29.754 
21:20	73.7	73.7	73.7	84	68.6	0	1	248	0.00	29.754 
21:25	73.7	73.7	73.7	84	68.6	0	1	248	0.00	29.754 
21:30	73.5	73.5	73.5	84	68.4	0	0	---	0.00	29.758 
21:35	73.5	73.5	73.5	85	68.7	0	1	248	0.00	29.758 
21:40	73.3	73.3	73.3	85	68.5	0	0	---	0.00	29.758 
21:45	73.3	73.3	73.3	85	68.5	0	0	---	0.00	29.760 
21:50	73.2	73.2	73.2	86	68.7	0	1	248	0.00	29.760 
21:55	73.2	73.2	73.2	86	68.7	0	1	248	0.00	29.760 
22:00	73.2	73.2	73.2	86	68.7	0	2	248	0.00	29.752 
22:05	73.2	73.2	73.2	86	68.7	0	1	248	0.00	29.752 
22:10	73.2	73.2	73.2	87	69.1	0	1	248	0.00	29.752 
22:15	73.0	73.0	73.0	87	68.9	0	2	248	0.00	29.756 
22:20	73.0	73.0	73.0	87	68.9	0	1	248	0.00	29.756 
22:25	73.0	73.0	73.0	87	68.9	0	1	248	0.00	29.756 
22:30	72.8	72.8	72.8	87	68.7	0	0	---	0.00	29.750 
22:35	72.7	72.7	72.7	88	68.9	0	0	---	0.00	29.750 
22:40	72.7	72.7	72.7	88	68.9	0	1	248	0.00	29.750 
22:45	72.7	72.7	72.7	88	68.9	0	1	248	0.00	29.747 
22:50	72.5	72.5	72.5	88	68.7	0	0	---	0.00	29.747 
22:55	72.5	72.5	72.5	88	68.7	0	1	248	0.00	29.747 
23:00	72.5	72.5	72.5	89	69.1	0	1	248	0.00	29.743 
23:05	72.7	72.7	72.7	89	69.3	0	2	248	0.00	29.743 
23:10	72.8	72.8	72.8	89	69.4	0	2	248	0.00	29.743 
23:15	72.8	72.8	72.8	89	69.4	0	2	248	0.00	29.759 
23:20	72.8	72.8	72.8	88	69.0	0	0	---	0.00	29.759 
23:25	72.8	72.8	72.8	88	69.0	0	1	248	0.00	29.759 
23:30	72.8	72.8	72.8	89	69.4	0	1	248	0.00	29.745 
23:35	72.8	72.8	72.8	89	69.4	0	1	248	0.00	29.745 
23:40	72.8	72.8	72.8	89	69.4	0	1	248	0.00	29.745 
23:45	72.7	72.7	72.7	89	69.3	0	1	248	0.00	29.749 
23:50	72.7	72.7	72.7	89	69.3	0	1	248	0.00	29.749 
23:55	72.5	72.5	72.5	89	69.1	0	1	248	0.00	29.749 

CoCoRaHS
IN-AL-39
A2 Web Hosting
Creative Commons License
GoDaddy
search engine by freefind advanced

loaded 2018-11-22 05:44:33 • last modified 2010-11-18 10:43:29
Privacy PolicyDisclaimer
• wx.awcolley.com is powered by PmWiki v.2002016 •
• all content (unless otherwise noted) © 2018 A W Colley